Time;durP1;ratioP1;P1;durP2;ratioP2;P2;SDS_P1;SDS_P2;PMS_P1;PMS_P2;Temp;Humidity;BMP_temperature;BMP_pressure;BME280_temperature;BME280_humidity;BME280_pressure;Samples;Min_cycle;Max_cycle;Signal;HPM_P1;HPM_P2
2023/11/15 06:00:40;;;;;;;3.95;0.70;;;10.00;87.40;;;;;;4704435;23;20094;-88
2023/11/15 06:02:42;;;;;;;4.95;0.93;;;9.90;87.20;;;;;;4054481;29;20064;-87
2023/11/15 06:04:44;;;;;;;5.32;0.90;;;10.00;87.20;;;;;;4054818;29;20418;-88
2023/11/15 06:06:46;;;;;;;4.60;1.00;;;9.90;87.00;;;;;;4055249;29;20049;-89
2023/11/15 06:08:48;;;;;;;3.63;1.02;;;9.90;87.20;;;;;;4054733;29;20052;-88
2023/11/15 06:10:50;;;;;;;3.88;0.80;;;9.90;87.20;;;;;;4056473;29;20481;-87
2023/11/15 06:12:54;;;;;;;3.72;0.70;;;10.00;87.30;;;;;;4055701;29;20065;-88
2023/11/15 06:14:56;;;;;;;4.75;0.90;;;10.00;87.00;;;;;;4039662;29;20421;-87
2023/11/15 06:16:59;;;;;;;4.50;0.88;;;10.00;87.00;;;;;;4055375;29;20124;-87
2023/11/15 06:19:01;;;;;;;3.08;0.70;;;10.00;86.80;;;;;;4056765;29;20060;-86
2023/11/15 06:21:05;;;;;;;4.65;0.90;;;10.00;86.80;;;;;;4066241;29;20052;-88
2023/11/15 06:23:06;;;;;;;4.25;0.93;;;10.00;86.70;;;;;;4066489;29;20124;-87
2023/11/15 06:25:09;;;;;;;3.20;0.90;;;10.00;86.70;;;;;;4066345;29;20064;-89
2023/11/15 06:27:11;;;;;;;3.47;0.90;;;10.00;86.60;;;;;;4065401;29;20056;-88
2023/11/15 06:29:13;;;;;;;3.50;0.80;;;10.00;86.40;;;;;;4066002;29;20057;-87
2023/11/15 06:31:16;;;;;;;4.07;0.90;;;10.00;86.50;;;;;;4073640;29;20528;-86
2023/11/15 06:33:19;;;;;;;4.47;0.90;;;10.00;86.20;;;;;;4055238;29;20063;-87
2023/11/15 06:35:21;;;;;;;3.95;0.93;;;10.00;86.10;;;;;;4054767;29;20489;-87
2023/11/15 06:37:23;;;;;;;3.53;1.00;;;10.00;86.00;;;;;;4053054;29;20470;-86
2023/11/15 06:39:25;;;;;;;6.38;1.27;;;10.00;85.80;;;;;;4054672;29;20108;-87
2023/11/15 06:41:27;;;;;;;4.25;0.90;;;10.10;85.70;;;;;;4054491;29;20056;-88
2023/11/15 06:43:28;;;;;;;3.40;0.85;;;10.10;85.50;;;;;;4055237;29;20060;-86
2023/11/15 06:45:32;;;;;;;5.97;1.13;;;10.10;85.40;;;;;;4055070;29;20052;-88
2023/11/15 06:47:35;;;;;;;4.22;1.13;;;10.10;85.40;;;;;;4054128;29;20088;-87
2023/11/15 06:49:40;;;;;;;2.80;0.80;;;10.10;85.20;;;;;;4055876;29;20135;-86
2023/11/15 06:51:48;;;;;;;2.78;0.82;;;10.10;85.30;;;;;;4058068;29;20056;-86
2023/11/15 06:53:53;;;;;;;3.83;0.88;;;10.10;85.20;;;;;;4061166;29;20125;-87
2023/11/15 06:55:55;;;;;;;5.70;0.90;;;10.10;85.10;;;;;;4061541;29;20048;-87
2023/11/15 06:57:57;;;;;;;2.92;0.80;;;10.10;84.90;;;;;;4056538;29;20056;-87
2023/11/15 06:59:59;;;;;;;4.72;0.80;;;10.10;84.80;;;;;;4055791;29;20053;-87
2023/11/15 07:02:06;;;;;;;3.97;0.95;;;10.10;84.80;;;;;;4055455;29;20065;-87
2023/11/15 07:04:08;;;;;;;4.13;1.00;;;10.10;84.70;;;;;;4056144;29;20621;-87
2023/11/15 07:06:13;;;;;;;4.35;0.90;;;10.10;84.50;;;;;;4056238;29;20056;-88
2023/11/15 07:08:16;;;;;;;5.88;0.90;;;10.10;84.40;;;;;;4053856;29;20459;-88
2023/11/15 07:10:18;;;;;;;10.15;3.75;;;10.10;84.20;;;;;;4054665;29;20434;-87
2023/11/15 07:12:20;;;;;;;3.75;0.80;;;10.10;84.20;;;;;;4052976;29;20045;-87
2023/11/15 07:14:22;;;;;;;1.92;0.75;;;10.10;84.00;;;;;;4053893;29;20049;-85
2023/11/15 07:16:24;;;;;;;4.40;1.17;;;10.10;84.30;;;;;;4053925;29;20403;-88
2023/11/15 07:18:26;;;;;;;3.35;0.90;;;10.10;84.80;;;;;;4056273;29;20490;-88
2023/11/15 07:20:28;;;;;;;3.85;0.90;;;10.10;84.90;;;;;;4053573;29;20459;-88
2023/11/15 07:22:33;;;;;;;4.63;1.13;;;10.10;84.70;;;;;;4054108;29;20049;-87
2023/11/15 07:24:39;;;;;;;4.78;0.85;;;10.20;84.80;;;;;;4053988;29;20056;-87
2023/11/15 07:26:41;;;;;;;3.30;0.93;;;10.20;84.80;;;;;;4054132;29;20054;-87
2023/11/15 07:28:43;;;;;;;3.35;0.90;;;10.20;84.80;;;;;;4053885;29;20143;-87
2023/11/15 07:30:43;;;;;;;3.05;0.70;;;10.20;84.80;;;;;;4054204;29;20410;-85
2023/11/15 07:32:46;;;;;;;2.53;0.95;;;10.10;84.90;;;;;;4053725;29;20053;-89
2023/11/15 07:34:49;;;;;;;4.18;0.95;;;10.20;84.70;;;;;;4054024;29;20060;-86
2023/11/15 07:36:53;;;;;;;3.70;0.93;;;10.20;84.70;;;;;;4053811;29;20060;-87
2023/11/15 07:38:57;;;;;;;5.40;0.95;;;10.10;84.70;;;;;;4053840;29;20066;-86
2023/11/15 07:40:59;;;;;;;4.25;0.80;;;10.10;84.70;;;;;;4053624;29;20102;-86
2023/11/15 07:43:00;;;;;;;3.08;0.77;;;10.20;85.00;;;;;;4053594;29;20056;-83
2023/11/15 07:45:02;;;;;;;4.55;0.90;;;10.20;85.10;;;;;;4053328;29;20063;-86
2023/11/15 07:47:05;;;;;;;3.25;0.95;;;10.10;85.20;;;;;;4053823;29;20071;-85
2023/11/15 07:49:07;;;;;;;6.50;1.20;;;10.10;85.30;;;;;;4056606;29;20111;-85
2023/11/15 07:51:10;;;;;;;3.67;1.10;;;10.20;85.50;;;;;;4056779;29;20048;-85
2023/11/15 07:53:12;;;;;;;3.00;0.75;;;10.20;85.60;;;;;;4056959;29;20113;-84
2023/11/15 07:55:16;;;;;;;4.35;0.82;;;10.20;85.70;;;;;;4056646;29;20104;-85
2023/11/15 07:57:19;;;;;;;4.13;1.00;;;10.20;85.80;;;;;;4055391;29;20104;-85
2023/11/15 07:59:23;;;;;;;3.90;1.10;;;10.20;85.60;;;;;;4043771;29;20056;-84
2023/11/15 08:01:25;;;;;;;3.08;0.82;;;10.20;85.50;;;;;;4041171;29;20117;-85
2023/11/15 08:03:29;;;;;;;5.88;1.00;;;10.30;85.40;;;;;;4039981;29;20401;-84
2023/11/15 08:05:30;;;;;;;3.60;0.82;;;10.20;85.50;;;;;;4041421;29;20499;-85
2023/11/15 08:07:36;;;;;;;3.92;1.10;;;10.20;85.30;;;;;;4041218;29;20057;-86
2023/11/15 08:09:37;;;;;;;4.50;1.20;;;10.30;85.20;;;;;;4041231;29;20056;-84
2023/11/15 08:11:40;;;;;;;3.42;0.95;;;10.30;85.00;;;;;;4041334;29;20109;-85
2023/11/15 08:13:42;;;;;;;6.75;1.30;;;10.30;85.00;;;;;;4041598;29;20052;-85
2023/11/15 08:15:44;;;;;;;4.03;0.93;;;10.30;85.00;;;;;;4040997;29;20057;-84
2023/11/15 08:17:47;;;;;;;5.32;1.33;;;10.30;84.90;;;;;;4040912;29;20084;-80
2023/11/15 08:19:49;;;;;;;4.82;1.30;;;10.30;84.70;;;;;;4041778;29;20491;-85
2023/11/15 08:21:51;;;;;;;3.72;1.15;;;10.40;84.60;;;;;;4041210;29;20056;-79
2023/11/15 08:23:54;;;;;;;4.38;1.00;;;10.40;84.60;;;;;;4040088;29;20502;-77
2023/11/15 08:26:00;;;;;;;5.07;1.10;;;10.40;84.40;;;;;;4040318;29;20414;-78
2023/11/15 08:28:04;;;;;;;5.47;1.05;;;10.40;84.60;;;;;;4040223;29;20059;-79
2023/11/15 08:30:10;;;;;;;4.80;0.98;;;10.40;83.70;;;;;;4040124;29;20502;-80
2023/11/15 08:32:12;;;;;;;6.60;0.95;;;10.40;83.60;;;;;;4040343;29;20404;-80
2023/11/15 08:34:14;;;;;;;2.85;0.90;;;10.50;83.60;;;;;;4040340;29;20381;-80
2023/11/15 08:36:16;;;;;;;3.67;0.95;;;10.40;83.70;;;;;;4039978;29;20105;-79
2023/11/15 08:38:18;;;;;;;4.88;1.10;;;10.50;83.90;;;;;;4040093;29;20105;-79
2023/11/15 08:40:22;;;;;;;3.50;0.80;;;10.50;84.00;;;;;;4040118;29;20055;-78
2023/11/15 08:42:26;;;;;;;2.90;0.82;;;10.50;83.90;;;;;;4040108;29;20045;-81
2023/11/15 08:44:28;;;;;;;3.42;0.80;;;10.50;84.40;;;;;;4040132;29;20053;-81
2023/11/15 08:46:30;;;;;;;5.10;1.10;;;10.50;83.70;;;;;;4040187;29;20447;-80
2023/11/15 08:48:33;;;;;;;4.72;1.05;;;10.50;83.90;;;;;;4039922;29;20417;-81
2023/11/15 08:50:35;;;;;;;4.95;1.30;;;10.50;84.40;;;;;;4040679;29;20057;-81
2023/11/15 08:52:39;;;;;;;5.60;1.15;;;10.50;84.20;;;;;;4041411;29;20451;-81
2023/11/15 08:54:40;;;;;;;4.55;1.30;;;10.50;84.60;;;;;;4040950;29;20468;-82
2023/11/15 08:56:42;;;;;;;4.28;1.17;;;10.50;84.30;;;;;;4039250;29;20056;-85
2023/11/15 08:58:44;;;;;;;6.05;1.20;;;10.50;84.20;;;;;;4050111;29;20131;-82
2023/11/15 09:00:46;;;;;;;5.00;1.10;;;10.50;84.10;;;;;;4054695;29;20557;-81
2023/11/15 09:02:48;;;;;;;6.22;1.10;;;10.60;83.80;;;;;;4055545;29;20096;-82
2023/11/15 09:04:50;;;;;;;3.40;0.90;;;10.60;83.60;;;;;;4055236;29;20546;-82
2023/11/15 09:06:54;;;;;;;3.85;1.05;;;10.60;83.40;;;;;;4055255;29;20112;-82
2023/11/15 09:08:56;;;;;;;4.22;1.25;;;10.60;83.40;;;;;;4055605;29;20056;-82
2023/11/15 09:10:58;;;;;;;4.75;1.23;;;10.60;83.20;;;;;;4055292;29;20045;-82
2023/11/15 09:13:01;;;;;;;4.97;1.10;;;10.60;83.20;;;;;;4060495;29;20495;-84
2023/11/15 09:15:11;;;;;;;5.55;1.33;;;10.60;82.90;;;;;;4059175;29;20068;-79
2023/11/15 09:17:16;;;;;;;4.95;0.93;;;10.60;83.00;;;;;;4055181;29;20127;-83
2023/11/15 09:19:20;;;;;;;3.53;0.93;;;10.70;82.90;;;;;;4055198;29;20410;-79
2023/11/15 09:21:23;;;;;;;4.50;1.10;;;10.70;83.30;;;;;;4053831;29;20048;-81
2023/11/15 09:23:29;;;;;;;3.42;0.90;;;10.70;83.40;;;;;;4053818;29;20053;-85
2023/11/15 09:25:32;;;;;;;4.60;1.10;;;10.60;83.90;;;;;;4055321;29;20049;-82
2023/11/15 09:27:34;;;;;;;3.85;1.05;;;10.60;84.20;;;;;;4055058;29;20650;-84
2023/11/15 09:29:38;;;;;;;6.45;1.77;;;10.60;84.40;;;;;;4055049;29;20395;-81
2023/11/15 09:31:39;;;;;;;7.85;3.58;;;10.70;84.10;;;;;;4044119;29;20053;-84
2023/11/15 09:33:44;;;;;;;4.32;1.42;;;10.70;84.40;;;;;;4039618;29;20449;-82
2023/11/15 09:35:46;;;;;;;6.60;1.30;;;10.70;84.20;;;;;;4039523;29;20059;-82
2023/11/15 09:37:50;;;;;;;4.45;1.15;;;10.60;84.20;;;;;;4039273;29;20408;-83
2023/11/15 09:39:51;;;;;;;4.95;1.48;;;10.60;84.30;;;;;;4039215;29;20147;-81
2023/11/15 09:41:54;;;;;;;5.32;1.50;;;10.70;84.30;;;;;;4039308;29;20086;-82
2023/11/15 09:44:00;;;;;;;4.20;1.45;;;10.80;84.20;;;;;;4039741;29;20053;-83
2023/11/15 09:46:08;;;;;;;4.05;1.10;;;10.80;84.20;;;;;;4054879;29;20112;-82
2023/11/15 09:48:13;;;;;;;7.00;1.40;;;10.80;84.30;;;;;;4054554;29;20443;-81
2023/11/15 09:50:21;;;;;;;8.52;3.17;;;10.80;84.70;;;;;;4054688;29;20102;-81
2023/11/15 09:52:24;;;;;;;5.50;1.60;;;10.80;84.60;;;;;;4054649;29;20059;-82
2023/11/15 09:54:26;;;;;;;7.07;1.30;;;10.90;84.30;;;;;;4054508;29;20079;-82
2023/11/15 09:56:28;;;;;;;5.75;1.52;;;10.90;84.40;;;;;;4054558;29;20081;-83
2023/11/15 09:58:29;;;;;;;6.00;1.20;;;10.90;84.40;;;;;;4053338;29;20083;-82
2023/11/15 10:00:32;;;;;;;6.82;1.42;;;11.00;84.50;;;;;;4054416;29;20055;-80
2023/11/15 10:02:34;;;;;;;7.18;1.45;;;11.00;84.00;;;;;;4054500;29;20482;-81
2023/11/15 10:04:36;;;;;;;5.70;1.20;;;11.10;84.00;;;;;;4054233;29;20063;-82
2023/11/15 10:06:42;;;;;;;5.03;1.42;;;11.10;82.90;;;;;;4053010;29;20490;-83
2023/11/15 10:08:53;;;;;;;5.10;1.10;;;11.20;83.20;;;;;;4054424;29;20049;-82
2023/11/15 10:11:06;;;;;;;4.32;0.95;;;11.30;82.60;;;;;;4054414;29;20056;-82
2023/11/15 10:13:14;;;;;;;6.63;1.38;;;11.30;82.70;;;;;;4054264;29;20056;-81
2023/11/15 10:15:18;;;;;;;6.85;1.70;;;11.40;82.70;;;;;;4054034;29;20521;-82
2023/11/15 10:17:20;;;;;;;4.88;1.13;;;11.40;82.30;;;;;;4054321;29;20143;-81
2023/11/15 10:19:26;;;;;;;5.90;1.40;;;11.50;82.40;;;;;;4053928;29;20523;-81
2023/11/15 10:21:29;;;;;;;4.38;1.10;;;11.50;81.90;;;;;;4054114;29;20052;-82
2023/11/15 10:23:32;;;;;;;7.75;1.13;;;11.50;81.40;;;;;;4053859;29;20049;-82
2023/11/15 10:25:47;;;;;;;6.22;1.13;;;11.50;81.30;;;;;;4053870;29;20052;-82
2023/11/15 10:27:51;;;;;;;4.93;1.13;;;11.40;82.00;;;;;;4054032;29;20418;-82
2023/11/15 10:29:53;;;;;;;4.97;1.00;;;11.40;81.10;;;;;;4053760;29;20056;-81
2023/11/15 10:32:00;;;;;;;5.93;1.27;;;11.40;81.60;;;;;;4053861;29;20052;-82
2023/11/15 10:34:10;;;;;;;3.65;1.27;;;11.40;81.30;;;;;;4053849;29;20052;-81
2023/11/15 10:36:17;;;;;;;5.63;0.93;;;11.40;81.20;;;;;;4053846;29;20048;-84
2023/11/15 10:38:20;;;;;;;3.85;0.80;;;11.40;80.00;;;;;;4053844;29;20064;-82
2023/11/15 10:40:25;;;;;;;7.78;1.25;;;11.50;80.10;;;;;;4053888;29;20566;-81
2023/11/15 10:42:29;;;;;;;4.93;1.20;;;11.40;78.60;;;;;;4054142;29;20053;-83
2023/11/15 10:44:31;;;;;;;4.55;0.90;;;11.40;79.20;;;;;;4053764;29;20056;-81
2023/11/15 10:46:36;;;;;;;4.60;0.90;;;11.40;78.50;;;;;;4053704;29;20067;-81
2023/11/15 10:48:39;;;;;;;4.00;1.25;;;11.40;78.50;;;;;;4054546;29;20479;-81
2023/11/15 10:50:45;;;;;;;5.65;1.00;;;11.50;78.80;;;;;;4054064;29;20414;-82
2023/11/15 10:52:49;;;;;;;2.65;0.90;;;11.50;79.20;;;;;;4054128;29;20060;-81
2023/11/15 10:54:53;;;;;;;6.53;1.10;;;11.60;78.50;;;;;;4054020;29;20060;-81
2023/11/15 10:57:01;;;;;;;4.50;1.00;;;11.60;76.80;;;;;;4053704;29;20064;-80
2023/11/15 10:59:05;;;;;;;5.47;0.90;;;11.50;77.10;;;;;;4052189;29;20475;-82
2023/11/15 11:01:12;;;;;;;4.40;1.20;;;11.50;75.50;;;;;;4037236;29;20121;-81
2023/11/15 11:03:23;;;;;;;3.88;1.05;;;11.50;75.70;;;;;;4034868;29;20049;-81
2023/11/15 11:05:40;;;;;;;5.85;1.00;;;11.60;76.50;;;;;;4036249;29;20061;-80
2023/11/15 11:07:57;;;;;;;6.78;1.17;;;11.70;76.30;;;;;;4036357;29;20464;-79
2023/11/15 11:10:08;;;;;;;5.70;1.20;;;11.80;75.70;;;;;;4036033;29;20079;-81
2023/11/15 11:12:15;;;;;;;5.75;0.80;;;11.70;75.30;;;;;;4035549;29;20056;-81
2023/11/15 11:14:25;;;;;;;3.90;0.95;;;11.80;74.80;;;;;;4035948;29;20053;-79
2023/11/15 11:16:36;;;;;;;4.20;1.00;;;11.90;73.90;;;;;;4044226;29;20518;-81
2023/11/15 11:18:38;;;;;;;3.53;0.82;;;11.80;74.00;;;;;;4049322;29;20102;-81
2023/11/15 11:20:55;;;;;;;4.00;1.15;;;11.90;73.90;;;;;;4065601;29;20077;-79
2023/11/15 11:23:16;;;;;;;6.65;1.05;;;11.90;73.50;;;;;;4051310;29;20048;-81
2023/11/15 11:25:26;;;;;;;4.28;1.13;;;11.90;72.80;;;;;;4051243;29;20486;-82
2023/11/15 11:27:42;;;;;;;3.83;0.90;;;12.00;73.40;;;;;;4052431;29;20056;-81
2023/11/15 11:30:23;;;;;;;2.83;0.90;;;12.00;72.90;;;;;;4053056;29;20063;-81
2023/11/15 11:32:27;;;;;;;3.55;0.98;;;12.00;72.50;;;;;;4036354;29;20594;-79
2023/11/15 11:34:28;;;;;;;5.47;0.90;;;12.00;72.70;;;;;;4049985;29;20053;-79
2023/11/15 11:36:49;;;;;;;5.93;1.30;;;12.00;72.40;;;;;;4051221;29;20459;-80
2023/11/15 11:38:51;;;;;;;3.15;0.90;;;12.00;72.20;;;;;;4050933;29;20065;-80
2023/11/15 11:40:53;;;;;;;5.20;1.20;;;12.10;72.70;;;;;;4051148;29;20079;-79
2023/11/15 11:43:21;;;;;;;4.03;0.85;;;12.20;73.10;;;;;;4051082;29;20091;-81
2023/11/15 11:45:23;;;;;;;4.22;0.93;;;12.20;72.50;;;;;;4051194;29;20228;-80
2023/11/15 11:47:25;;;;;;;4.13;0.80;;;12.10;71.40;;;;;;4050799;29;20132;-81
2023/11/15 11:49:28;;;;;;;5.28;0.80;;;12.20;71.00;;;;;;4051207;29;20063;-82
2023/11/15 11:51:30;;;;;;;2.65;0.70;;;12.20;71.20;;;;;;4051342;29;20143;-80
2023/11/15 11:53:38;;;;;;;5.50;1.58;;;12.00;69.10;;;;;;4049640;29;20056;-80
2023/11/15 11:55:39;;;;;;;10.73;3.35;;;12.00;69.60;;;;;;4051254;29;20053;-81
2023/11/15 11:57:41;;;;;;;5.07;0.80;;;11.90;69.90;;;;;;4049806;29;20065;-81
2023/11/15 12:00:00;;;;;;;4.75;1.42;;;11.90;69.90;;;;;;4051215;29;20479;-80
2023/11/15 12:02:02;;;;;;;4.50;0.82;;;11.90;69.70;;;;;;4053547;29;20113;-81
2023/11/15 12:04:04;;;;;;;2.63;0.77;;;11.90;69.20;;;;;;4052037;29;20053;-80
2023/11/15 12:06:09;;;;;;;3.92;0.82;;;11.80;70.00;;;;;;4051227;29;20101;-80
2023/11/15 12:08:10;;;;;;;3.17;0.77;;;11.80;70.50;;;;;;4052282;29;20060;-86
2023/11/15 12:10:14;;;;;;;4.28;1.00;;;11.90;71.40;;;;;;4051367;29;20052;-82
2023/11/15 12:12:17;;;;;;;2.88;0.80;;;11.90;71.70;;;;;;4050942;29;20140;-82
2023/11/15 12:14:19;;;;;;;3.00;1.02;;;11.90;71.90;;;;;;4051194;29;20068;-81
2023/11/15 12:16:25;;;;;;;4.03;0.98;;;12.00;71.50;;;;;;4050894;29;20092;-85
2023/11/15 12:18:27;;;;;;;2.92;0.73;;;12.00;71.30;;;;;;4049115;29;20503;-82
2023/11/15 12:20:30;;;;;;;2.92;0.70;;;12.00;71.10;;;;;;4050884;29;20084;-82
2023/11/15 12:22:32;;;;;;;2.15;0.60;;;11.90;71.00;;;;;;4051266;29;20048;-82
2023/11/15 12:24:36;;;;;;;2.78;0.80;;;12.00;71.50;;;;;;4052337;29;20056;-86
2023/11/15 12:26:43;;;;;;;5.82;0.90;;;12.00;70.70;;;;;;4052037;29;20125;-87
2023/11/15 12:28:46;;;;;;;6.78;0.90;;;11.90;70.60;;;;;;4051854;29;20056;-84
2023/11/15 12:30:47;;;;;;;3.90;0.90;;;12.00;70.20;;;;;;4051442;29;20557;-83
2023/11/15 12:32:51;;;;;;;3.60;0.57;;;12.00;69.10;;;;;;4051361;29;20060;-82
2023/11/15 12:34:53;;;;;;;2.95;0.90;;;12.10;69.10;;;;;;4052198;29;20491;-83
2023/11/15 12:36:55;;;;;;;2.55;0.70;;;12.30;69.30;;;;;;4053537;29;20053;-80
2023/11/15 12:38:56;;;;;;;3.05;0.60;;;12.50;68.90;;;;;;4054002;29;20130;-81
2023/11/15 12:41:03;;;;;;;4.60;0.75;;;12.70;68.00;;;;;;4053987;29;20052;-80
2023/11/15 12:43:27;;;;;;;2.53;0.70;;;12.90;67.10;;;;;;4053788;29;20487;-83
2023/11/15 12:45:29;;;;;;;2.72;0.80;;;13.00;66.40;;;;;;4053662;29;20506;-81
2023/11/15 12:47:31;;;;;;;2.72;0.80;;;13.00;65.90;;;;;;4053637;29;20135;-83
2023/11/15 12:49:37;;;;;;;2.13;0.70;;;12.90;65.50;;;;;;4053657;29;20055;-83
2023/11/15 12:51:45;;;;;;;3.13;0.77;;;13.00;65.70;;;;;;4054008;29;20055;-81
2023/11/15 12:53:47;;;;;;;4.90;0.80;;;12.90;65.80;;;;;;4039311;29;20080;-82
2023/11/15 12:55:51;;;;;;;4.75;0.90;;;13.00;66.30;;;;;;4039990;29;20483;-82
2023/11/15 12:57:53;;;;;;;3.25;0.90;;;15.80;62.20;;;;;;4040313;29;20088;-83
2023/11/15 12:59:56;;;;;;;1.90;0.65;;;14.70;58.70;;;;;;4038695;29;20065;-82
2023/11/15 13:01:57;;;;;;;1.83;0.70;;;14.00;60.90;;;;;;4038273;29;20064;-82
2023/11/15 13:03:59;;;;;;;3.03;0.70;;;13.50;62.60;;;;;;4038063;29;20053;-83
2023/11/15 13:06:14;;;;;;;2.22;0.60;;;13.30;64.00;;;;;;4037924;29;20057;-81
2023/11/15 13:08:16;;;;;;;1.80;0.50;;;13.30;64.50;;;;;;4037816;29;20084;-83
2023/11/15 13:10:18;;;;;;;2.35;0.73;;;14.20;61.80;;;;;;4037626;29;20485;-82
2023/11/15 13:12:24;;;;;;;3.13;0.77;;;15.20;61.50;;;;;;4037395;29;20057;-83
2023/11/15 13:14:27;;;;;;;4.30;0.50;;;14.50;58.60;;;;;;4036655;29;20495;-82
2023/11/15 13:16:32;;;;;;;2.83;0.70;;;14.00;60.90;;;;;;4037828;29;20144;-81
2023/11/15 13:18:35;;;;;;;3.78;0.73;;;13.70;61.70;;;;;;4035806;29;20337;-80
2023/11/15 13:20:37;;;;;;;3.28;1.20;;;14.20;62.40;;;;;;4037656;29;20049;-81
2023/11/15 13:22:41;;;;;;;3.85;1.00;;;13.70;62.20;;;;;;4037678;29;20061;-81
2023/11/15 13:24:42;;;;;;;2.85;0.88;;;15.20;59.20;;;;;;4037379;29;20060;-80
2023/11/15 13:26:49;;;;;;;3.03;0.90;;;16.00;59.20;;;;;;4038048;29;20084;-82
2023/11/15 13:28:52;;;;;;;3.20;0.95;;;17.00;54.60;;;;;;4037461;29;20057;-81
2023/11/15 13:30:54;;;;;;;3.60;0.77;;;18.70;52.30;;;;;;4037707;29;20286;-82
2023/11/15 13:32:57;;;;;;;1.90;0.75;;;16.80;54.20;;;;;;4037442;29;20060;-81
2023/11/15 13:35:02;;;;;;;5.47;1.05;;;16.60;54.40;;;;;;4037329;29;20053;-77
2023/11/15 13:37:04;;;;;;;3.53;0.82;;;19.90;48.50;;;;;;4036994;29;20077;-81
2023/11/15 13:39:07;;;;;;;4.25;0.95;;;18.10;49.20;;;;;;4037235;29;20084;-80
2023/11/15 13:41:10;;;;;;;2.97;0.80;;;16.70;52.00;;;;;;4037174;29;20128;-79
2023/11/15 13:43:12;;;;;;;5.10;1.10;;;16.00;53.90;;;;;;4037096;29;20053;-78
2023/11/15 13:45:15;;;;;;;4.13;0.88;;;15.40;55.20;;;;;;4037139;29;20056;-80
2023/11/15 13:47:18;;;;;;;4.22;1.00;;;15.30;55.60;;;;;;4037196;29;20136;-79
2023/11/15 13:49:20;;;;;;;4.70;0.73;;;18.30;52.70;;;;;;4036874;29;20056;-79
2023/11/15 13:51:22;;;;;;;2.70;0.73;;;16.80;50.50;;;;;;4036834;29;20057;-80
2023/11/15 13:53:25;;;;;;;3.95;0.98;;;16.90;52.80;;;;;;4048342;29;20459;-80
2023/11/15 13:55:28;;;;;;;6.15;0.77;;;16.00;51.80;;;;;;4056616;29;20152;-80
2023/11/15 13:57:31;;;;;;;3.42;1.00;;;15.40;54.00;;;;;;4057183;29;20100;-80
2023/11/15 13:59:35;;;;;;;3.70;1.00;;;18.30;51.90;;;;;;4054731;29;20057;-80
2023/11/15 14:01:37;;;;;;;3.92;1.13;;;21.30;45.30;;;;;;4054068;29;20067;-80
2023/11/15 14:03:39;;;;;;;2.88;0.90;;;19.20;44.10;;;;;;4053273;29;20048;-79
2023/11/15 14:05:41;;;;;;;2.85;0.80;;;19.50;45.00;;;;;;4052909;29;20490;-80
2023/11/15 14:07:43;;;;;;;3.85;0.95;;;19.40;46.80;;;;;;4053153;29;20091;-78
2023/11/15 14:09:45;;;;;;;4.80;1.00;;;18.20;46.80;;;;;;4052894;29;20083;-81
2023/11/15 14:11:49;;;;;;;3.60;1.00;;;17.00;49.10;;;;;;4052536;29;20172;-80
2023/11/15 14:13:51;;;;;;;3.55;0.68;;;16.30;51.20;;;;;;4052231;29;20108;-79
2023/11/15 14:15:53;;;;;;;3.63;1.08;;;15.50;53.10;;;;;;4052106;29;20307;-79
2023/11/15 14:17:55;;;;;;;4.22;1.00;;;15.90;53.60;;;;;;4052167;29;20056;-79
2023/11/15 14:19:58;;;;;;;3.10;0.80;;;16.90;51.00;;;;;;4050226;29;20414;-79
2023/11/15 14:22:00;;;;;;;4.15;0.90;;;17.70;49.70;;;;;;4051897;29;20088;-78
2023/11/15 14:24:02;;;;;;;4.85;0.82;;;16.40;51.40;;;;;;4052097;29;20049;-79
2023/11/15 14:26:05;;;;;;;3.55;0.90;;;15.50;53.30;;;;;;4051887;29;20067;-79
2023/11/15 14:28:08;;;;;;;3.67;0.80;;;14.70;55.20;;;;;;4052167;29;20057;-78
2023/11/15 14:30:12;;;;;;;3.97;0.88;;;14.50;56.70;;;;;;4051909;29;20049;-79
2023/11/15 14:32:17;;;;;;;4.40;1.00;;;16.30;54.30;;;;;;4051894;29;20048;-78
2023/11/15 14:34:19;;;;;;;3.60;0.88;;;16.60;52.00;;;;;;4051969;29;20434;-80
2023/11/15 14:36:24;;;;;;;2.33;0.75;;;17.30;50.00;;;;;;4051799;29;20081;-78
2023/11/15 14:38:26;;;;;;;3.90;1.10;;;17.70;50.20;;;;;;4052346;29;20041;-80
2023/11/15 14:40:28;;;;;;;3.15;0.90;;;18.90;47.90;;;;;;4053453;29;20360;-79
2023/11/15 14:42:30;;;;;;;3.00;0.57;;;19.70;45.70;;;;;;4051927;29;20483;-79
2023/11/15 14:44:33;;;;;;;4.00;0.77;;;19.80;44.80;;;;;;4052446;29;20410;-79
2023/11/15 14:46:35;;;;;;;2.72;0.93;;;19.70;45.40;;;;;;4048882;29;20052;-78
2023/11/15 14:48:37;;;;;;;2.40;0.80;;;19.40;46.30;;;;;;4052084;29;20549;-79
2023/11/15 14:50:41;;;;;;;4.20;0.75;;;19.40;45.30;;;;;;4054645;29;20544;-82
2023/11/15 14:52:52;;;;;;;3.45;0.80;;;19.10;45.90;;;;;;4046067;29;20053;-81
2023/11/15 14:55:03;;;;;;;3.28;0.88;;;19.30;46.40;;;;;;4036353;29;20057;-80
2023/11/15 14:57:05;;;;;;;4.38;0.80;;;19.50;45.40;;;;;;4036279;29;20452;-78
2023/11/15 14:59:07;;;;;;;4.03;0.80;;;19.00;45.90;;;;;;4036026;29;20411;-77
2023/11/15 15:01:11;;;;;;;4.15;0.77;;;19.00;45.90;;;;;;4041312;29;20056;-80
2023/11/15 15:03:14;;;;;;;3.83;0.90;;;18.80;46.10;;;;;;4051845;29;20064;-81
2023/11/15 15:05:16;;;;;;;4.38;0.90;;;18.20;46.90;;;;;;4051125;29;20117;-79
2023/11/15 15:07:18;;;;;;;4.25;0.98;;;17.80;48.60;;;;;;4051121;29;20064;-78
2023/11/15 15:09:19;;;;;;;2.38;0.70;;;18.00;48.60;;;;;;4051306;29;20469;-79
2023/11/15 15:11:21;;;;;;;4.50;1.00;;;17.70;48.50;;;;;;4051456;29;20092;-79
2023/11/15 15:13:24;;;;;;;3.22;0.90;;;17.60;49.20;;;;;;4051219;29;20056;-79
2023/11/15 15:15:26;;;;;;;4.13;1.00;;;17.40;49.30;;;;;;4049366;29;20058;-78
2023/11/15 15:17:30;;;;;;;3.45;0.70;;;16.90;50.60;;;;;;4049683;29;20057;-80
2023/11/15 15:19:33;;;;;;;4.32;0.90;;;16.60;51.00;;;;;;4048745;29;20451;-79
2023/11/15 15:21:35;;;;;;;5.18;1.00;;;16.30;51.50;;;;;;4048685;29;20113;-83
2023/11/15 15:23:37;;;;;;;5.13;1.00;;;16.00;52.40;;;;;;4019292;29;20065;-81
2023/11/15 15:25:40;;;;;;;3.85;0.82;;;15.20;54.10;;;;;;4025591;29;20045;-79
2023/11/15 15:27:43;;;;;;;4.68;0.90;;;14.70;55.70;;;;;;4034947;29;20053;-81
2023/11/15 15:29:47;;;;;;;4.00;1.20;;;14.30;57.10;;;;;;4051240;29;20045;-82
2023/11/15 15:31:49;;;;;;;2.08;0.60;;;14.00;57.90;;;;;;4054742;29;20386;-83
2023/11/15 15:33:53;;;;;;;4.65;1.08;;;13.70;59.10;;;;;;4053801;29;20055;-85
2023/11/15 15:35:56;;;;;;;4.40;1.02;;;13.40;60.10;;;;;;4052000;29;20060;-82
2023/11/15 15:37:59;;;;;;;5.07;1.00;;;13.30;61.10;;;;;;4051415;29;20562;-85
2023/11/15 15:40:02;;;;;;;4.00;0.98;;;13.10;62.40;;;;;;4051551;29;20095;-83
2023/11/15 15:42:06;;;;;;;5.57;1.05;;;13.00;62.50;;;;;;4051581;29;20131;-82
2023/11/15 15:44:08;;;;;;;4.07;1.10;;;12.90;63.10;;;;;;4050995;29;20086;-82
2023/11/15 15:46:13;;;;;;;3.97;1.10;;;12.70;63.50;;;;;;4050480;29;20510;-82
2023/11/15 15:48:15;;;;;;;2.42;0.82;;;12.60;64.10;;;;;;4051135;29;20052;-86
2023/11/15 15:50:18;;;;;;;6.95;1.30;;;12.50;64.80;;;;;;4049841;29;20056;-82
2023/11/15 15:52:21;;;;;;;3.92;1.10;;;12.40;65.40;;;;;;4053142;29;20052;-83
2023/11/15 15:54:23;;;;;;;5.18;1.27;;;12.40;65.80;;;;;;4063144;29;20067;-81
2023/11/15 15:56:29;;;;;;;4.60;0.85;;;12.30;66.10;;;;;;4059285;29;20052;-84
2023/11/15 15:58:31;;;;;;;5.75;1.15;;;12.20;66.40;;;;;;4066987;29;20156;-82
2023/11/15 16:00:33;;;;;;;3.83;1.02;;;12.20;66.50;;;;;;4061639;29;20081;-80
2023/11/15 16:02:35;;;;;;;4.25;0.90;;;12.10;66.90;;;;;;4057537;29;20724;-83
2023/11/15 16:04:41;;;;;;;4.18;1.20;;;12.10;67.10;;;;;;4050222;29;20056;-84
2023/11/15 16:06:44;;;;;;;5.10;1.20;;;12.00;67.30;;;;;;4034894;29;20057;-82
2023/11/15 16:08:46;;;;;;;5.97;1.40;;;12.00;67.60;;;;;;4052440;29;20112;-84
2023/11/15 16:10:50;;;;;;;7.13;1.27;;;11.90;67.90;;;;;;4054249;29;20090;-81
2023/11/15 16:12:51;;;;;;;5.28;1.45;;;11.90;68.10;;;;;;4054252;29;20052;-82
2023/11/15 16:14:55;;;;;;;4.90;1.48;;;11.90;68.20;;;;;;4054154;29;20152;-83
2023/11/15 16:16:57;;;;;;;6.03;1.35;;;11.80;68.60;;;;;;4054554;29;20059;-83
2023/11/15 16:18:59;;;;;;;6.35;1.52;;;11.70;68.70;;;;;;4053078;29;20057;-82
2023/11/15 16:21:06;;;;;;;4.18;1.17;;;11.70;68.90;;;;;;4054668;29;20044;-84
2023/11/15 16:23:10;;;;;;;4.43;1.10;;;11.70;68.80;;;;;;4054660;29;20124;-83
2023/11/15 16:25:12;;;;;;;4.47;1.45;;;11.70;69.10;;;;;;4054775;29;20075;-82
2023/11/15 16:27:14;;;;;;;4.88;1.17;;;11.70;69.00;;;;;;4057049;29;20059;-83
2023/11/15 16:29:16;;;;;;;5.60;1.30;;;11.70;69.20;;;;;;4064496;29;20075;-83
2023/11/15 16:31:18;;;;;;;5.20;1.23;;;11.60;69.40;;;;;;4051415;29;20571;-81
2023/11/15 16:33:20;;;;;;;5.60;1.50;;;11.60;69.50;;;;;;4079362;29;20059;-82
2023/11/15 16:35:22;;;;;;;5.13;1.20;;;11.60;69.70;;;;;;4081323;29;20114;-85
2023/11/15 16:37:24;;;;;;;4.85;1.20;;;11.50;69.70;;;;;;4077147;29;20127;-82
2023/11/15 16:39:28;;;;;;;6.03;1.25;;;11.60;70.00;;;;;;4081640;29;20079;-83
2023/11/15 16:41:46;;;;;;;6.55;1.33;;;11.50;70.70;;;;;;4081763;29;20055;-84
2023/11/15 16:43:48;;;;;;;3.85;1.10;;;11.40;70.40;;;;;;4053942;29;20142;-83
2023/11/15 16:45:51;;;;;;;3.28;1.20;;;11.40;70.90;;;;;;4070842;29;20110;-82